Airfield :
LOGIN :

Register | Disclaimer

   EN    FR    IT 

 










Legend :    VFR   Marginal VFR   IFR   Intensive IFR   Very Intensive IFR
Visi :
Ceiling :
>= 8 km
>= 3000ft
5 to 8 km
1000 to 3000 ft
1500m to 5 km
500 to 1000 ft
800 to 1500m
200 to 500 ft
< 800m
< 200 ft
Symbols :   Thunderstorms  Fog  Heavy snow  Heavy precipitations  Wind > 20 kt
SIGMETs :     Misc.  Thunderstorms  Icing  Turbulence  Mountain Waves  Volcanic Ashes






- Airport Elevation : 277 ft
- IATA code : JER


EGJJ - Jersey

CURRENT METAR :
  • 200320Z AUTO 07008KT 9999 NCD 07/06 Q1024

EXPIRED METARs :
  • 200250Z AUTO 07008KT 9999 NCD 07/06 Q1024
  • 200220Z AUTO 09009KT 9999 NCD 08/06 Q1023
  • 200150Z AUTO 08011KT 9999 NCD 08/06 Q1023
  • 200120Z AUTO 08009KT 9999 NCD 08/06 Q1023
  • 200050Z AUTO 08012KT 9999 NCD 09/07 Q1022
  • 200020Z AUTO 07011KT 9999 NCD 09/08 Q1023
  • 192350Z AUTO 05008KT 020V080 9999 NCD 10/08 Q1022
  • 192320Z AUTO 01007KT 330V050 9999 NCD 10/08 Q1022

TAF TAF EGJJ
Valid from the 20 at 03:00 until the 20 at 12:00 UTC


200159Z 2003/2012 08009KT 9999 FEW030
BECMG 2009/2012 02012KT
ATIS : +44 1534 498 073



MET'MAP, your aeronautical weather chart ! - Copyright ORBIFLY December 2007 - Disclaimer

ORBIFLY MET'MAP TEAM :

Programming & Development : Alexandra Zaïnal
Original concept : Baudouin d'Aumeries
Technical & hardware support : Manuel Goepfert
Assistance : Marc-Olivier Méhu




SOURCES & CREDITS :

   NOAA